createdAt,value
2022-08-09T00:00:04.280Z,5.75
2022-08-09T00:02:34.484Z,6.35
2022-08-09T00:06:16.206Z,6.15
2022-08-09T00:07:49.898Z,5.90
2022-08-09T00:10:24.557Z,6.38
2022-08-09T00:12:53.651Z,9.60
2022-08-09T00:15:26.509Z,8.15
2022-08-09T00:18:11.286Z,7.47
2022-08-09T00:20:42.496Z,6.63
2022-08-09T00:23:56.663Z,7.63
2022-08-09T00:26:05.462Z,6.15
2022-08-09T00:28:34.757Z,6.90
2022-08-09T00:31:30.639Z,8.70
2022-08-09T00:33:50.999Z,8.13
2022-08-09T00:36:19.426Z,6.28
2022-08-09T00:38:50.682Z,8.43
2022-08-09T00:44:10.493Z,8.10
2022-08-09T00:44:24.839Z,6.95
2022-08-09T00:46:57.627Z,7.40
2022-08-09T00:49:32.805Z,6.72
2022-08-09T00:52:02.041Z,8.77
2022-08-09T00:54:35.898Z,10.38
2022-08-09T00:57:10.115Z,6.57
2022-08-09T00:59:41.253Z,7.50
2022-08-09T01:02:16.309Z,6.10
2022-08-09T01:04:48.163Z,7.70
2022-08-09T01:07:18.558Z,8.32
2022-08-09T01:10:07.284Z,7.10
2022-08-09T01:12:39.225Z,7.97
2022-08-09T01:15:16.663Z,7.32
2022-08-09T01:17:47.042Z,6.93
2022-08-09T01:20:17.547Z,7.75
2022-08-09T01:24:01.719Z,6.60
2022-08-09T01:26:15.032Z,8.80
2022-08-09T01:28:45.532Z,7.88
2022-08-09T01:31:40.909Z,8.98
2022-08-09T01:34:03.667Z,10.07
2022-08-09T01:36:32.489Z,8.25
2022-08-09T01:39:00.652Z,8.97
2022-08-09T01:41:29.764Z,8.38
2022-08-09T01:43:59.857Z,8.82
2022-08-09T01:46:29.014Z,9.73
2022-08-09T01:49:00.313Z,7.63
2022-08-09T01:51:38.456Z,9.60
2022-08-09T01:54:11.225Z,8.05
2022-08-09T01:56:41.181Z,9.48
2022-08-09T01:59:10.863Z,13.35
2022-08-09T02:01:59.641Z,8.65
2022-08-09T02:04:29.731Z,9.73
2022-08-09T02:07:18.046Z,9.82
2022-08-09T02:10:01.378Z,10.98
2022-08-09T02:12:33.644Z,8.65
2022-08-09T02:15:03.196Z,9.70
2022-08-09T02:18:01.445Z,11.47
2022-08-09T02:20:25.359Z,11.48
2022-08-09T02:22:57.631Z,10.50
2022-08-09T02:25:28.449Z,11.00
2022-08-09T02:28:03.935Z,10.00
2022-08-09T02:30:35.726Z,10.27
2022-08-09T02:33:03.426Z,10.73
2022-08-09T02:36:01.160Z,10.15
2022-08-09T02:38:28.808Z,9.85
2022-08-09T02:40:59.271Z,10.20
2022-08-09T02:43:28.857Z,9.47
2022-08-09T02:45:58.766Z,11.27
2022-08-09T02:48:30.598Z,10.15
2022-08-09T02:51:01.628Z,15.20
2022-08-09T02:53:31.755Z,12.00
2022-08-09T02:56:03.313Z,10.03
2022-08-09T02:58:36.601Z,10.13
2022-08-09T03:01:08.240Z,12.47
2022-08-09T03:04:16.710Z,10.13
2022-08-09T03:06:27.805Z,10.30
2022-08-09T03:08:56.719Z,11.13
2022-08-09T03:12:04.408Z,13.93
2022-08-09T03:14:12.914Z,17.87
2022-08-09T03:16:47.552Z,11.02
2022-08-09T03:19:52.660Z,11.32
2022-08-09T03:22:04.424Z,13.02
2022-08-09T03:24:51.896Z,13.00
2022-08-09T03:27:21.548Z,11.77
2022-08-09T03:29:57.587Z,10.52
2022-08-09T03:32:30.953Z,13.95
2022-08-09T03:34:59.343Z,12.35
2022-08-09T03:37:54.250Z,15.48
2022-08-09T03:40:18.077Z,11.87
2022-08-09T03:42:45.882Z,12.90
2022-08-09T03:45:15.585Z,12.43
2022-08-09T03:47:46.673Z,12.77
2022-08-09T03:50:27.582Z,11.98
2022-08-09T03:52:55.868Z,12.80
2022-08-09T03:55:25.283Z,12.35
2022-08-09T03:58:03.456Z,15.93
2022-08-09T04:00:38.200Z,13.13
2022-08-09T04:03:07.870Z,13.48
2022-08-09T04:05:40.563Z,13.77
2022-08-09T04:08:08.127Z,13.98
2022-08-09T04:10:36.346Z,13.43
2022-08-09T04:13:09.512Z,14.70
2022-08-09T04:16:18.154Z,11.98
2022-08-09T04:18:28.372Z,13.20
2022-08-09T04:20:55.796Z,15.50
2022-08-09T04:23:24.884Z,13.55
2022-08-09T04:25:53.622Z,11.00
2022-08-09T04:28:32.932Z,12.20
2022-08-09T04:31:07.705Z,10.97
2022-08-09T04:33:47.357Z,12.00
2022-08-09T04:36:20.784Z,11.27
2022-08-09T04:38:50.916Z,11.68
2022-08-09T04:41:19.747Z,13.57
2022-08-09T04:44:05.043Z,12.07
2022-08-09T04:46:38.064Z,12.75
2022-08-09T04:49:40.173Z,10.32
2022-08-09T04:52:11.950Z,11.77
2022-08-09T04:54:47.059Z,12.98
2022-08-09T04:57:14.519Z,12.17
2022-08-09T04:59:42.436Z,15.25
2022-08-09T05:02:15.177Z,10.40
2022-08-09T05:04:44.017Z,12.05
2022-08-09T05:07:19.860Z,11.90
2022-08-09T05:09:49.938Z,13.20
2022-08-09T05:12:17.582Z,11.77
2022-08-09T05:14:46.020Z,11.43
2022-08-09T05:17:15.224Z,12.65
2022-08-09T05:20:02.460Z,13.57
2022-08-09T05:22:34.923Z,13.83
2022-08-09T05:25:04.455Z,12.35
2022-08-09T05:27:32.269Z,13.90
2022-08-09T05:29:59.718Z,12.93
2022-08-09T05:32:29.990Z,11.45
2022-08-09T05:34:57.696Z,11.20
2022-08-09T05:37:26.515Z,12.43
2022-08-09T05:39:54.161Z,11.55
2022-08-09T05:42:22.222Z,10.40
2022-08-09T05:44:56.415Z,10.80
2022-08-09T05:47:25.079Z,10.93
2022-08-09T05:50:25.594Z,11.50
2022-08-09T05:52:53.448Z,9.60
2022-08-09T05:55:23.930Z,12.13
2022-08-09T05:57:56.904Z,11.95
2022-08-09T06:00:26.055Z,13.13
2022-08-09T06:02:54.237Z,11.02
2022-08-09T06:05:30.766Z,11.52
2022-08-09T06:08:13.675Z,11.23
2022-08-09T06:10:47.621Z,12.40
2022-08-09T06:13:19.004Z,10.47
2022-08-09T06:15:51.328Z,12.15
2022-08-09T06:18:20.473Z,10.52
2022-08-09T06:20:54.561Z,11.60
2022-08-09T06:23:57.271Z,11.40
2022-08-09T06:26:14.633Z,11.03
2022-08-09T06:28:43.459Z,17.65
2022-08-09T06:31:11.405Z,9.18
2022-08-09T06:33:40.868Z,11.05
2022-08-09T06:36:09.507Z,11.63
2022-08-09T06:38:50.011Z,10.40
2022-08-09T06:41:20.468Z,10.25
2022-08-09T06:43:48.276Z,9.82
2022-08-09T06:46:38.989Z,8.88
2022-08-09T06:49:03.578Z,8.77
2022-08-09T06:51:31.092Z,8.17
2022-08-09T06:54:00.736Z,7.35
2022-08-09T06:56:30.902Z,8.75
2022-08-09T07:00:55.578Z,8.05
2022-08-09T07:01:54.087Z,8.43
2022-08-09T07:04:27.123Z,9.73
2022-08-09T07:07:00.084Z,7.18
2022-08-09T07:09:55.598Z,8.43
2022-08-09T07:12:17.892Z,7.60
2022-08-09T07:14:51.452Z,7.95
2022-08-09T07:17:19.300Z,8.10
2022-08-09T07:19:48.212Z,7.20
2022-08-09T07:22:18.600Z,7.03
2022-08-09T07:24:56.666Z,6.93
2022-08-09T07:27:33.507Z,7.53
2022-08-09T07:30:02.444Z,7.83
2022-08-09T07:32:33.301Z,6.60
2022-08-09T07:35:02.742Z,6.25
2022-08-09T07:37:43.390Z,5.63
2022-08-09T07:40:17.082Z,5.38
2022-08-09T07:42:48.740Z,5.20
2022-08-09T07:45:33.267Z,5.53
2022-08-09T07:48:05.424Z,5.28
2022-08-09T07:50:36.436Z,5.00
2022-08-09T07:53:04.651Z,6.45
2022-08-09T07:55:41.736Z,5.57
2022-08-09T07:58:26.814Z,5.95
2022-08-09T08:00:55.972Z,6.38
2022-08-09T08:03:36.818Z,5.00
2022-08-09T08:06:04.629Z,4.78
2022-08-09T08:09:02.469Z,6.67
2022-08-09T08:12:23.985Z,4.65
2022-08-09T08:14:09.006Z,7.05
2022-08-09T08:16:36.890Z,4.80
2022-08-09T08:19:07.139Z,4.93
2022-08-09T08:21:34.591Z,5.70
2022-08-09T08:24:11.824Z,5.45
2022-08-09T08:26:55.518Z,5.43
2022-08-09T08:29:28.075Z,5.80
2022-08-09T08:32:04.331Z,5.75
2022-08-09T08:34:34.726Z,6.10
2022-08-09T08:37:04.888Z,4.47
2022-08-09T08:39:39.177Z,4.07
2022-08-09T08:42:12.668Z,5.15
2022-08-09T08:44:42.175Z,5.65
2022-08-09T08:47:12.925Z,6.03
2022-08-09T08:49:48.191Z,7.43
2022-08-09T08:52:52.486Z,5.38
2022-08-09T08:55:06.018Z,5.38
2022-08-09T08:57:35.876Z,7.43
2022-08-09T09:00:08.254Z,6.93
2022-08-09T09:02:40.807Z,4.93
2022-08-09T09:05:11.879Z,5.57
2022-08-09T09:07:42.635Z,3.95
2022-08-09T09:10:12.119Z,6.18
2022-08-09T09:12:41.301Z,5.07
2022-08-09T09:15:12.111Z,4.15
2022-08-09T09:17:55.504Z,4.10
2022-08-09T09:20:22.918Z,4.47
2022-08-09T09:22:55.557Z,3.78
2022-08-09T09:26:00.904Z,4.70
2022-08-09T09:28:39.249Z,3.95
2022-08-09T09:31:17.448Z,4.03
2022-08-09T09:34:11.650Z,2.30
2022-08-09T09:36:53.302Z,3.65
2022-08-09T09:39:22.869Z,4.07
2022-08-09T09:41:52.321Z,3.70
2022-08-09T09:44:31.523Z,4.30
2022-08-09T09:47:06.423Z,3.33
2022-08-09T09:50:07.571Z,3.67
2022-08-09T09:52:52.513Z,3.90
2022-08-09T09:55:16.398Z,3.35
2022-08-09T09:58:03.254Z,3.13
2022-08-09T10:00:54.597Z,2.83
2022-08-09T10:03:43.677Z,2.50
2022-08-09T10:06:12.655Z,4.10
2022-08-09T10:08:54.199Z,2.78
2022-08-09T10:12:00.665Z,3.58
2022-08-09T10:14:27.508Z,3.70
2022-08-09T10:17:40.303Z,2.95
2022-08-09T10:19:53.006Z,2.70
2022-08-09T10:22:32.718Z,3.05
2022-08-09T10:25:03.379Z,4.10
2022-08-09T10:27:34.819Z,2.85
2022-08-09T10:30:41.954Z,2.85
2022-08-09T10:32:56.644Z,3.67
2022-08-09T10:35:26.982Z,2.83
2022-08-09T10:37:56.096Z,3.13
2022-08-09T10:40:33.816Z,2.90
2022-08-09T10:43:03.916Z,2.53
2022-08-09T10:45:35.310Z,3.07
2022-08-09T10:48:19.135Z,3.42
2022-08-09T10:51:11.867Z,5.07
2022-08-09T10:53:54.084Z,2.55
2022-08-09T10:56:24.075Z,3.60
2022-08-09T10:58:54.062Z,2.07
2022-08-09T11:03:11.282Z,2.78
2022-08-09T11:04:31.764Z,4.45
2022-08-09T11:07:18.389Z,2.30
2022-08-09T11:09:50.131Z,3.25
2022-08-09T11:12:20.332Z,3.40
2022-08-09T11:14:48.904Z,2.00
2022-08-09T11:17:35.162Z,2.10
2022-08-09T11:20:22.520Z,2.30
2022-08-09T11:23:09.979Z,2.47
2022-08-09T11:25:46.174Z,2.73
2022-08-09T11:28:34.653Z,2.75
2022-08-09T11:31:36.389Z,2.45
2022-08-09T11:34:07.719Z,2.80
2022-08-09T11:36:40.108Z,2.22
2022-08-09T11:39:07.563Z,3.17
2022-08-09T11:41:40.490Z,1.90
2022-08-09T11:44:08.448Z,2.83
2022-08-09T11:46:52.271Z,2.65
2022-08-09T11:49:28.154Z,3.55
2022-08-09T11:53:15.908Z,3.70
2022-08-09T11:55:51.653Z,2.25
2022-08-09T11:58:33.793Z,2.53
2022-08-09T12:01:03.459Z,1.85
2022-08-09T12:03:56.580Z,2.10
2022-08-09T12:06:32.660Z,2.43
2022-08-09T12:09:05.191Z,2.22
2022-08-09T12:11:44.573Z,2.17
2022-08-09T12:14:28.689Z,1.92
2022-08-09T12:17:28.279Z,2.60
2022-08-09T12:19:59.382Z,3.03
2022-08-09T12:22:29.031Z,2.17
2022-08-09T12:29:13.367Z,3.00
2022-08-09T12:30:57.085Z,2.17
2022-08-09T12:33:26.454Z,2.58
2022-08-09T12:36:15.431Z,2.60
2022-08-09T12:38:58.523Z,7.25
2022-08-09T12:41:27.243Z,2.78
2022-08-09T12:44:06.883Z,2.65
2022-08-09T12:46:36.223Z,2.83
2022-08-09T12:49:04.407Z,4.07
2022-08-09T12:52:00.807Z,3.15
2022-08-09T12:54:19.239Z,5.75
2022-08-09T12:56:48.739Z,2.25
2022-08-09T12:59:23.080Z,3.63
2022-08-09T13:02:02.026Z,2.57
2022-08-09T13:04:36.279Z,3.10
2022-08-09T13:07:13.515Z,3.83
2022-08-09T13:09:43.204Z,3.95
2022-08-09T13:12:11.251Z,2.80
2022-08-09T13:14:45.340Z,3.47
2022-08-09T13:17:21.775Z,2.88
2022-08-09T13:20:16.070Z,2.05
2022-08-09T13:23:05.677Z,2.88
2022-08-09T13:25:42.305Z,3.03
2022-08-09T13:28:11.235Z,2.63
2022-08-09T13:32:13.653Z,2.45
2022-08-09T13:33:53.602Z,2.50
2022-08-09T13:36:24.078Z,2.80
2022-08-09T13:41:20.893Z,2.88
2022-08-09T13:42:02.098Z,2.43
2022-08-09T13:44:30.217Z,2.75
2022-08-09T13:47:25.272Z,2.20
2022-08-09T13:49:56.276Z,2.97
2022-08-09T13:52:25.176Z,3.10
2022-08-09T13:54:59.902Z,2.57
2022-08-09T13:57:36.629Z,3.50
2022-08-09T14:00:07.309Z,2.25
2022-08-09T14:02:36.322Z,2.83
2022-08-09T14:05:12.254Z,3.90
2022-08-09T14:08:01.558Z,2.37
2022-08-09T14:10:46.345Z,2.67
2022-08-09T14:13:27.670Z,3.30
2022-08-09T14:16:10.278Z,3.15
2022-08-09T14:18:43.319Z,3.92
2022-08-09T14:21:17.408Z,2.47
2022-08-09T14:23:54.592Z,2.55
2022-08-09T14:26:25.354Z,2.58
2022-08-09T14:28:57.916Z,2.58
2022-08-09T14:31:50.306Z,3.50
2022-08-09T14:34:14.340Z,1.97
2022-08-09T14:36:46.054Z,3.58
2022-08-09T14:39:17.326Z,2.60
2022-08-09T14:41:44.971Z,2.85
2022-08-09T14:44:15.143Z,2.65
2022-08-09T14:46:59.331Z,4.00
2022-08-09T14:49:39.921Z,2.88
2022-08-09T14:52:07.710Z,3.45
2022-08-09T14:54:35.160Z,2.22
2022-08-09T14:57:02.583Z,3.28
2022-08-09T14:59:30.909Z,2.73
2022-08-09T15:01:58.322Z,4.07
2022-08-09T15:04:25.947Z,3.38
2022-08-09T15:06:54.764Z,2.20
2022-08-09T15:10:03.656Z,2.03
2022-08-09T15:12:11.678Z,3.07
2022-08-09T15:14:39.251Z,2.13
2022-08-09T15:17:07.729Z,1.77
2022-08-09T15:19:36.776Z,2.20
2022-08-09T15:22:05.680Z,2.72
2022-08-09T15:24:33.216Z,1.90
2022-08-09T15:27:00.727Z,2.30
2022-08-09T15:30:58.706Z,2.28
2022-08-09T15:32:29.744Z,2.60
2022-08-09T15:34:59.767Z,1.77
2022-08-09T15:37:57.341Z,2.10
2022-08-09T15:40:32.271Z,2.00
2022-08-09T15:43:01.746Z,2.78
2022-08-09T15:45:30.161Z,3.45
2022-08-09T15:48:06.494Z,2.70
2022-08-09T15:50:48.247Z,2.30
2022-08-09T15:53:18.877Z,3.42
2022-08-09T15:56:21.472Z,2.45
2022-08-09T15:58:52.803Z,1.95
2022-08-09T16:01:20.344Z,2.55
2022-08-09T16:03:47.809Z,3.50
2022-08-09T16:06:34.760Z,2.28
2022-08-09T16:09:06.503Z,4.03
2022-08-09T16:11:34.160Z,2.72
2022-08-09T16:14:04.895Z,2.53
2022-08-09T16:16:36.800Z,3.30
2022-08-09T16:19:04.793Z,3.33
2022-08-09T16:21:35.208Z,2.88
2022-08-09T16:24:03.028Z,2.60
2022-08-09T16:26:36.434Z,2.92
2022-08-09T16:29:11.191Z,2.80
2022-08-09T16:32:18.512Z,3.30
2022-08-09T16:34:27.384Z,4.05
2022-08-09T16:36:59.278Z,3.88
2022-08-09T16:39:27.353Z,2.75
2022-08-09T16:42:08.650Z,3.17
2022-08-09T16:44:36.079Z,2.42
2022-08-09T16:48:36.521Z,3.55
2022-08-09T16:50:32.396Z,3.20
2022-08-09T16:52:38.474Z,3.75
2022-08-09T16:55:12.073Z,3.00
2022-08-09T16:58:08.865Z,3.28
2022-08-09T17:00:32.188Z,2.70
2022-08-09T17:02:59.709Z,3.33
2022-08-09T17:06:07.687Z,4.10
2022-08-09T17:08:44.045Z,3.20
2022-08-09T17:11:02.681Z,3.58
2022-08-09T17:13:34.468Z,3.72
2022-08-09T17:16:02.469Z,3.80
2022-08-09T17:18:30.251Z,3.95
2022-08-09T17:20:57.905Z,3.60
2022-08-09T17:23:36.958Z,3.65
2022-08-09T17:26:13.038Z,3.20
2022-08-09T17:28:46.273Z,3.90
2022-08-09T17:31:16.018Z,4.65
2022-08-09T17:33:43.627Z,3.47
2022-08-09T17:36:15.865Z,3.47
2022-08-09T17:38:57.897Z,3.25
2022-08-09T17:41:38.459Z,4.55
2022-08-09T17:44:38.866Z,4.15
2022-08-09T17:46:57.629Z,3.60
2022-08-09T17:49:25.315Z,3.17
2022-08-09T17:51:55.562Z,5.15
2022-08-09T17:54:28.090Z,3.92
2022-08-09T17:56:57.012Z,4.22
2022-08-09T17:59:26.110Z,3.47
2022-08-09T18:02:11.758Z,2.97
2022-08-09T18:04:43.730Z,4.65
2022-08-09T18:07:11.443Z,3.50
2022-08-09T18:10:04.761Z,3.92
2022-08-09T18:12:40.528Z,4.85
2022-08-09T18:15:21.928Z,3.33
2022-08-09T18:18:25.566Z,3.97
2022-08-09T18:21:10.460Z,5.22
2022-08-09T18:24:10.376Z,3.47
2022-08-09T18:26:28.553Z,4.85
2022-08-09T18:30:39.883Z,4.33
2022-08-09T18:31:54.991Z,3.28
2022-08-09T18:34:24.438Z,4.60
2022-08-09T18:36:53.554Z,3.80
2022-08-09T18:39:22.111Z,3.55
2022-08-09T18:41:53.373Z,3.50
2022-08-09T18:44:25.490Z,3.50
2022-08-09T18:47:07.580Z,6.90
2022-08-09T18:49:41.471Z,4.30
2022-08-09T18:52:11.822Z,3.30
2022-08-09T18:54:39.490Z,3.80
2022-08-09T18:57:17.318Z,3.60
2022-08-09T18:59:51.296Z,2.92
2022-08-09T19:02:30.386Z,4.53
2022-08-09T19:05:04.473Z,4.32
2022-08-09T19:08:03.902Z,5.33
2022-08-09T19:10:36.977Z,4.03
2022-08-09T19:13:20.340Z,3.80
2022-08-09T19:15:51.464Z,3.42
2022-08-09T19:18:34.292Z,3.90
2022-08-09T19:21:05.226Z,4.40
2022-08-09T19:24:33.280Z,4.53
2022-08-09T19:26:31.934Z,4.53
2022-08-09T19:29:01.894Z,4.47
2022-08-09T19:31:30.566Z,5.28
2022-08-09T19:34:01.904Z,5.13
2022-08-09T19:36:30.932Z,3.17
2022-08-09T19:39:03.586Z,4.20
2022-08-09T19:41:35.582Z,5.80
2022-08-09T19:44:03.675Z,3.42
2022-08-09T19:46:35.785Z,5.40
2022-08-09T19:50:06.829Z,4.18
2022-08-09T19:52:07.141Z,4.15
2022-08-09T19:54:34.727Z,5.07
2022-08-09T19:57:03.002Z,4.80
2022-08-09T19:59:58.443Z,3.40
2022-08-09T20:04:12.665Z,5.97
2022-08-09T20:05:14.562Z,4.93
2022-08-09T20:07:59.618Z,3.80
2022-08-09T20:10:36.831Z,4.53
2022-08-09T20:13:05.631Z,4.07
2022-08-09T20:16:34.928Z,6.47
2022-08-09T20:18:22.414Z,5.10
2022-08-09T20:20:54.152Z,3.95
2022-08-09T20:23:23.553Z,4.00
2022-08-09T20:25:53.518Z,4.43
2022-08-09T20:28:34.067Z,3.75
2022-08-09T20:31:02.652Z,4.00
2022-08-09T20:33:38.970Z,5.15
2022-08-09T20:36:13.354Z,4.60
2022-08-09T20:41:35.291Z,3.60
2022-08-09T20:44:09.868Z,3.90
2022-08-09T20:46:44.034Z,4.97
2022-08-09T20:49:13.127Z,4.18
2022-08-09T20:51:42.693Z,4.33
2022-08-09T20:54:12.696Z,4.15
2022-08-09T20:56:46.722Z,4.57
2022-08-09T20:59:17.304Z,4.88
2022-08-09T21:01:51.625Z,6.00
2022-08-09T21:05:50.730Z,6.70
2022-08-09T21:07:13.810Z,4.03
2022-08-09T21:09:45.813Z,3.60
2022-08-09T21:12:32.003Z,3.88
2022-08-09T21:15:12.892Z,4.20
2022-08-09T21:18:22.256Z,4.80
2022-08-09T21:20:30.730Z,4.10
2022-08-09T21:23:00.529Z,4.97
2022-08-09T21:25:55.761Z,4.60
2022-08-09T21:28:28.141Z,4.22
2022-08-09T21:31:16.563Z,3.83
2022-08-09T21:33:51.510Z,4.25
2022-08-09T21:36:28.929Z,4.30
2022-08-09T21:38:59.723Z,4.13
2022-08-09T21:42:04.706Z,5.47
2022-08-09T21:44:32.866Z,3.90
2022-08-09T21:47:02.407Z,4.82
2022-08-09T21:49:40.171Z,4.45
2022-08-09T21:52:17.064Z,5.97
2022-08-09T21:55:02.858Z,4.40
2022-08-09T21:57:38.551Z,4.30
2022-08-09T22:00:25.835Z,4.82
2022-08-09T22:02:58.247Z,5.10
2022-08-09T22:05:35.875Z,5.78
2022-08-09T22:08:05.801Z,4.38
2022-08-09T22:10:34.776Z,4.93
2022-08-09T22:13:22.268Z,4.97
2022-08-09T22:15:49.716Z,5.10
2022-08-09T22:18:17.402Z,4.32
2022-08-09T22:20:45.950Z,4.72
2022-08-09T22:23:13.755Z,3.87
2022-08-09T22:26:05.334Z,6.13
2022-08-09T22:28:33.008Z,4.50
2022-08-09T22:31:00.967Z,5.72
2022-08-09T22:33:49.217Z,5.35
2022-08-09T22:36:19.225Z,4.20
2022-08-09T22:38:47.377Z,4.57
2022-08-09T22:41:16.222Z,4.43
2022-08-09T22:44:02.362Z,4.55
2022-08-09T22:48:11.598Z,6.43
2022-08-09T22:49:18.792Z,4.77
2022-08-09T22:51:49.803Z,4.60
2022-08-09T22:54:26.097Z,5.00
2022-08-09T22:56:57.042Z,5.65
2022-08-09T22:59:57.378Z,4.07
2022-08-09T23:02:15.735Z,5.03
2022-08-09T23:04:53.874Z,4.57
2022-08-09T23:08:22.408Z,4.57
2022-08-09T23:10:27.362Z,4.43
2022-08-09T23:12:56.187Z,5.00
2022-08-09T23:15:23.936Z,4.43
2022-08-09T23:17:51.482Z,4.68
2022-08-09T23:20:18.989Z,4.40
2022-08-09T23:22:46.467Z,5.80
2022-08-09T23:25:13.892Z,4.70
2022-08-09T23:28:09.312Z,4.40
2022-08-09T23:30:31.158Z,4.90
2022-08-09T23:32:58.581Z,5.22
2022-08-09T23:35:26.107Z,5.05
2022-08-09T23:37:53.560Z,5.30
2022-08-09T23:40:21.173Z,4.78
2022-08-09T23:42:48.723Z,4.67
2022-08-09T23:45:37.827Z,4.85
2022-08-09T23:48:08.793Z,5.22
2022-08-09T23:50:36.557Z,6.15
2022-08-09T23:53:04.265Z,6.60
2022-08-09T23:55:33.212Z,6.50
2022-08-09T23:58:10.507Z,7.68
